createdAt,value
2022-11-17T00:00:05.621Z,93293.84
2022-11-17T00:02:34.726Z,93298.94
2022-11-17T00:05:02.482Z,93302.63
2022-11-17T00:07:30.810Z,93302.31
2022-11-17T00:09:58.499Z,93298.66
2022-11-17T00:12:43.767Z,93298.09
2022-11-17T00:15:11.753Z,93293.53
2022-11-17T00:17:40.985Z,93296.22
2022-11-17T00:20:28.415Z,93295.41
2022-11-17T00:22:56.090Z,93285.38
2022-11-17T00:25:24.367Z,93285.38
2022-11-17T00:27:52.177Z,93282.69
2022-11-17T00:30:33.904Z,93285.19
2022-11-17T00:33:21.607Z,93271.81
2022-11-17T00:35:53.131Z,93273.44
2022-11-17T00:38:21.246Z,93273.94
2022-11-17T00:40:48.905Z,93273.94
2022-11-17T00:43:16.661Z,93275.53
2022-11-17T00:45:44.429Z,93273.44
2022-11-17T00:48:13.881Z,93266.72
2022-11-17T00:50:41.627Z,93278.31
2022-11-17T00:53:10.417Z,93274.25
2022-11-17T00:55:38.304Z,93272.03
2022-11-17T00:58:06.234Z,93269.59
2022-11-17T01:00:33.887Z,93272.03
2022-11-17T01:03:01.537Z,93275.53
2022-11-17T01:05:33.155Z,93279.94
2022-11-17T01:08:00.978Z,93277.81
2022-11-17T01:10:28.660Z,93274.88
2022-11-17T01:12:56.322Z,93273.31
2022-11-17T01:15:24.112Z,93272.25
2022-11-17T01:17:51.778Z,93273.88
2022-11-17T01:20:19.639Z,93278.72
2022-11-17T01:22:48.732Z,93262.84
2022-11-17T01:25:16.536Z,93255.66
2022-11-17T01:27:44.245Z,93261.03
2022-11-17T01:30:13.821Z,93271.56
2022-11-17T01:32:41.578Z,93256.78
2022-11-17T01:35:09.937Z,93256.00
2022-11-17T01:37:37.638Z,93248.19
2022-11-17T01:40:08.394Z,93241.22
2022-11-17T01:42:36.094Z,93247.69
2022-11-17T01:45:05.691Z,93262.03
2022-11-17T01:47:40.791Z,93253.13
2022-11-17T01:50:13.769Z,93250.50
2022-11-17T01:52:42.249Z,93250.25
2022-11-17T01:55:12.425Z,93238.66
2022-11-17T01:57:43.012Z,93230.88
2022-11-17T02:00:12.060Z,93217.13
2022-11-17T02:02:40.874Z,93213.94
2022-11-17T02:05:17.910Z,93205.84
2022-11-17T02:07:46.315Z,93198.28
2022-11-17T02:10:15.515Z,93194.22
2022-11-17T02:12:43.506Z,93198.72
2022-11-17T02:15:11.756Z,93179.59
2022-11-17T02:17:40.868Z,93176.59
2022-11-17T02:20:11.714Z,93171.28
2022-11-17T02:23:21.715Z,93175.41
2022-11-17T02:26:08.928Z,93175.75
2022-11-17T02:28:38.961Z,93185.19
2022-11-17T02:31:17.470Z,93193.03
2022-11-17T02:33:54.746Z,93198.47
2022-11-17T02:36:27.418Z,93190.66
2022-11-17T02:39:00.051Z,93197.41
2022-11-17T02:41:31.261Z,93196.56
2022-11-17T02:44:04.835Z,93188.47
2022-11-17T02:46:38.953Z,93177.97
2022-11-17T02:49:09.660Z,93171.78
2022-11-17T02:51:37.858Z,93159.63
2022-11-17T02:54:05.765Z,93153.41
2022-11-17T02:56:33.581Z,93149.34
2022-11-17T02:59:04.179Z,93146.91
2022-11-17T03:01:47.538Z,93145.03
2022-11-17T03:04:26.143Z,93140.16
2022-11-17T03:07:02.145Z,93145.78
2022-11-17T03:09:40.212Z,93134.38
2022-11-17T03:12:11.964Z,93132.53
2022-11-17T03:14:52.090Z,93138.22
2022-11-17T03:17:23.455Z,93131.47
2022-11-17T03:19:57.391Z,93131.81
2022-11-17T03:22:28.766Z,93131.56
2022-11-17T03:24:58.371Z,93125.59
2022-11-17T03:27:28.406Z,93122.34
2022-11-17T03:30:00.696Z,93120.69
2022-11-17T03:32:29.561Z,93122.59
2022-11-17T03:34:59.546Z,93121.28
2022-11-17T03:37:29.040Z,93124.53
2022-11-17T03:39:59.835Z,93114.03
2022-11-17T03:42:30.214Z,93115.94
2022-11-17T03:45:06.132Z,93106.50
2022-11-17T03:47:34.558Z,93102.50
2022-11-17T03:50:06.569Z,93098.69
2022-11-17T03:52:34.880Z,93096.00
2022-11-17T03:55:02.770Z,93087.41
2022-11-17T03:57:34.374Z,93087.69
2022-11-17T04:00:06.751Z,93092.31
2022-11-17T04:02:34.569Z,93096.41
2022-11-17T04:05:08.597Z,93092.88
2022-11-17T04:07:38.252Z,93091.25
2022-11-17T04:10:07.313Z,93090.75
2022-11-17T04:12:52.693Z,93090.25
2022-11-17T04:15:39.339Z,93075.16
2022-11-17T04:18:08.128Z,93079.78
2022-11-17T04:20:36.961Z,93084.91
2022-11-17T04:23:11.489Z,93073.31
2022-11-17T04:25:58.627Z,93069.03
2022-11-17T04:28:40.108Z,93069.34
2022-11-17T04:31:12.095Z,93064.22
2022-11-17T04:33:41.281Z,93057.19
2022-11-17T04:36:09.310Z,93052.59
2022-11-17T04:38:37.224Z,93053.66
2022-11-17T04:41:23.919Z,93049.34
2022-11-17T04:43:51.997Z,93054.75
2022-11-17T04:46:21.960Z,93063.09
2022-11-17T04:48:50.054Z,93075.50
2022-11-17T04:51:18.359Z,93085.50
2022-11-17T04:53:46.232Z,93084.97
2022-11-17T04:56:14.204Z,93086.06
2022-11-17T04:58:42.006Z,93089.88
2022-11-17T05:01:17.548Z,93088.28
2022-11-17T05:03:47.981Z,93091.25
2022-11-17T05:06:16.993Z,93088.84
2022-11-17T05:08:44.956Z,93097.53
2022-11-17T05:11:31.645Z,93112.63
2022-11-17T05:14:00.176Z,93134.78
2022-11-17T05:16:51.110Z,93137.50
2022-11-17T05:19:21.715Z,93150.41
2022-11-17T05:21:49.758Z,93163.34
2022-11-17T05:24:17.036Z,93165.81
2022-11-17T05:26:46.334Z,93150.97
2022-11-17T05:29:15.183Z,93150.44
2022-11-17T05:31:43.395Z,93148.34
2022-11-17T05:34:13.269Z,93132.44
2022-11-17T05:36:43.063Z,93138.66
2022-11-17T05:39:11.534Z,93143.28
2022-11-17T05:41:39.224Z,93163.28
2022-11-17T05:44:06.949Z,93157.94
2022-11-17T05:46:34.601Z,93155.78
2022-11-17T05:49:02.396Z,93156.06
2022-11-17T05:51:32.068Z,93165.50
2022-11-17T05:54:01.169Z,93158.25
2022-11-17T05:56:35.893Z,93169.31
2022-11-17T05:59:12.950Z,93164.16
2022-11-17T06:01:43.822Z,93156.06
2022-11-17T06:04:12.313Z,93152.81
2022-11-17T06:06:39.973Z,93138.22
2022-11-17T06:09:09.054Z,93140.91
2022-11-17T06:11:36.748Z,93130.94
2022-11-17T06:14:04.579Z,93127.41
2022-11-17T06:16:33.787Z,93119.88
2022-11-17T06:19:04.130Z,93114.75
2022-11-17T06:21:49.322Z,93128.59
2022-11-17T06:24:21.318Z,93138.00
2022-11-17T06:26:49.099Z,93141.78
2022-11-17T06:29:17.114Z,93131.53
2022-11-17T06:31:45.145Z,93127.22
2022-11-17T06:34:13.560Z,93110.44
2022-11-17T06:36:41.249Z,93100.19
2022-11-17T06:39:09.138Z,93108.28
2022-11-17T06:41:39.949Z,93120.47
2022-11-17T06:44:07.727Z,93120.75
2022-11-17T06:46:38.857Z,93116.16
2022-11-17T06:49:07.505Z,93099.44
2022-11-17T06:51:35.228Z,93101.59
2022-11-17T06:54:03.899Z,93093.50
2022-11-17T06:56:31.626Z,93108.91
2022-11-17T06:59:00.668Z,93114.06
2022-11-17T07:01:28.577Z,93123.50
2022-11-17T07:03:56.238Z,93119.47
2022-11-17T07:06:23.947Z,93132.47
2022-11-17T07:08:51.889Z,93126.81
2022-11-17T07:11:19.583Z,93130.03
2022-11-17T07:13:47.743Z,93149.22
2022-11-17T07:16:23.492Z,93156.22
2022-11-17T07:18:53.003Z,93162.75
2022-11-17T07:21:22.405Z,93157.34
2022-11-17T07:23:50.073Z,93164.09
2022-11-17T07:26:17.669Z,93151.97
2022-11-17T07:28:45.344Z,93151.44
2022-11-17T07:31:13.124Z,93151.44
2022-11-17T07:33:42.304Z,93159.28
2022-11-17T07:36:12.080Z,93149.53
2022-11-17T07:38:40.796Z,93150.66
2022-11-17T07:41:10.073Z,93138.47
2022-11-17T07:43:37.978Z,93146.06
2022-11-17T07:46:06.170Z,93141.19
2022-11-17T07:48:34.302Z,93140.66
2022-11-17T07:51:04.303Z,93160.38
2022-11-17T07:53:33.322Z,93164.16
2022-11-17T07:56:04.297Z,93171.44
2022-11-17T07:58:32.066Z,93177.94
2022-11-17T08:01:00.302Z,93186.03
2022-11-17T08:03:28.007Z,93198.19
2022-11-17T08:05:55.863Z,93190.63
2022-11-17T08:08:24.979Z,93213.91
2022-11-17T08:10:52.696Z,93208.75
2022-11-17T08:13:20.356Z,93224.47
2022-11-17T08:15:48.172Z,93236.09
2022-11-17T08:18:16.709Z,93231.78
2022-11-17T08:20:44.507Z,93216.66
2022-11-17T08:23:12.292Z,93208.28
2022-11-17T08:25:41.428Z,93205.06
2022-11-17T08:28:09.209Z,93193.16
2022-11-17T08:30:36.889Z,93172.06
2022-11-17T08:33:04.824Z,93188.03
2022-11-17T08:35:37.314Z,93172.06
2022-11-17T08:38:05.519Z,93182.34
2022-11-17T08:40:33.316Z,93176.69
2022-11-17T08:43:02.337Z,93154.00
2022-11-17T08:45:30.327Z,93151.56
2022-11-17T08:47:58.325Z,93143.44
2022-11-17T08:50:26.436Z,93135.59
2022-11-17T08:52:54.533Z,93131.53
2022-11-17T08:55:22.275Z,93135.59
2022-11-17T08:57:49.953Z,93139.59
2022-11-17T09:00:21.777Z,93145.56
2022-11-17T09:02:49.515Z,93154.16
2022-11-17T09:05:17.156Z,93148.41
2022-11-17T09:07:46.789Z,93147.56
2022-11-17T09:10:14.680Z,93161.06
2022-11-17T09:12:42.397Z,93170.72
2022-11-17T09:15:11.207Z,93161.09
2022-11-17T09:17:40.343Z,93164.78
2022-11-17T09:20:09.050Z,93161.63
2022-11-17T09:22:36.721Z,93170.72
2022-11-17T09:25:08.935Z,93165.16
2022-11-17T09:27:41.164Z,93163.28
2022-11-17T09:30:10.211Z,93163.91
2022-11-17T09:32:39.204Z,93167.88
2022-11-17T09:35:09.433Z,93169.47
2022-11-17T09:37:37.288Z,93171.63
2022-11-17T09:40:05.756Z,93177.81
2022-11-17T09:42:38.931Z,93183.03
2022-11-17T09:45:13.347Z,93183.19
2022-11-17T09:47:44.442Z,93188.81
2022-11-17T09:50:20.145Z,93191.94
2022-11-17T09:52:55.599Z,93192.31
2022-11-17T09:55:33.728Z,93195.50
2022-11-17T09:58:12.944Z,93196.81
2022-11-17T10:00:43.393Z,93195.75
2022-11-17T10:03:18.297Z,93193.25
2022-11-17T10:05:48.660Z,93191.09
2022-11-17T10:08:18.287Z,93186.97
2022-11-17T10:10:47.718Z,93188.31
2022-11-17T10:13:21.295Z,93189.47
2022-11-17T10:15:51.144Z,93191.91
2022-11-17T10:18:18.815Z,93183.72
2022-11-17T10:20:47.908Z,93187.88
2022-11-17T10:23:18.354Z,93191.59
2022-11-17T10:25:47.582Z,93198.94
2022-11-17T10:28:26.727Z,93191.84
2022-11-17T10:30:56.561Z,93195.59
2022-11-17T10:33:41.008Z,93199.59
2022-11-17T10:36:16.616Z,93204.38
2022-11-17T10:38:49.015Z,93202.69
2022-11-17T10:41:18.349Z,93202.69
2022-11-17T10:43:55.774Z,93198.06
2022-11-17T10:46:24.031Z,93198.56
2022-11-17T10:48:57.030Z,93195.50
2022-11-17T10:51:27.552Z,93195.38
2022-11-17T10:54:04.215Z,93194.19
2022-11-17T10:56:33.221Z,93199.56
2022-11-17T10:59:05.368Z,93203.56
2022-11-17T11:01:34.760Z,93193.47
2022-11-17T11:04:06.956Z,93196.78
2022-11-17T11:06:36.238Z,93210.03
2022-11-17T11:09:06.568Z,93194.94
2022-11-17T11:11:42.571Z,93210.13
2022-11-17T11:14:21.126Z,93202.97
2022-11-17T11:16:51.009Z,93205.09
2022-11-17T11:19:20.713Z,93211.81
2022-11-17T11:22:01.243Z,93219.31
2022-11-17T11:24:36.060Z,93222.84
2022-11-17T11:27:25.738Z,93208.13
2022-11-17T11:30:01.340Z,93218.41
2022-11-17T11:32:35.694Z,93219.53
2022-11-17T11:35:27.388Z,93217.69
2022-11-17T11:38:00.048Z,93218.50
2022-11-17T11:40:30.703Z,93224.53
2022-11-17T11:42:59.516Z,93225.72
2022-11-17T11:45:39.570Z,93220.28
2022-11-17T11:48:18.600Z,93224.59
2022-11-17T11:50:54.507Z,93215.84
2022-11-17T11:53:33.694Z,93216.69
2022-11-17T11:56:15.674Z,93211.16
2022-11-17T11:58:48.126Z,93211.06
2022-11-17T12:01:17.782Z,93208.94
2022-11-17T12:03:50.384Z,93209.22
2022-11-17T12:06:42.819Z,93210.84
2022-11-17T12:09:30.423Z,93214.59
2022-11-17T12:12:01.614Z,93213.50
2022-11-17T12:14:30.757Z,93221.06
2022-11-17T12:17:06.634Z,93202.50
2022-11-17T12:19:51.137Z,93203.59
2022-11-17T12:22:40.147Z,93190.28
2022-11-17T12:25:17.913Z,93194.34
2022-11-17T12:27:47.166Z,93195.94
2022-11-17T12:30:50.096Z,93193.75
2022-11-17T12:33:17.780Z,93191.53
2022-11-17T12:35:45.607Z,93188.22
2022-11-17T12:38:41.588Z,93192.63
2022-11-17T12:41:10.746Z,93197.34
2022-11-17T12:43:38.506Z,93200.97
2022-11-17T12:46:15.368Z,93200.38
2022-11-17T12:48:48.723Z,93208.91
2022-11-17T12:51:22.947Z,93209.84
2022-11-17T12:53:59.746Z,93208.13
2022-11-17T12:56:40.787Z,93197.03
2022-11-17T12:59:26.895Z,93201.66
2022-11-17T13:02:00.676Z,93191.06
2022-11-17T13:04:36.397Z,93203.91
2022-11-17T13:07:06.053Z,93197.41
2022-11-17T13:09:34.923Z,93192.75
2022-11-17T13:12:05.886Z,93198.28
2022-11-17T13:14:34.276Z,93188.72
2022-11-17T13:17:02.811Z,93193.88
2022-11-17T13:19:36.619Z,93197.31
2022-11-17T13:22:07.408Z,93196.44
2022-11-17T13:24:36.477Z,93186.56
2022-11-17T13:27:08.532Z,93188.00
2022-11-17T13:29:36.407Z,93190.25
2022-11-17T13:32:23.827Z,93189.66
2022-11-17T13:34:56.291Z,93189.81
2022-11-17T13:37:25.686Z,93179.09
2022-11-17T13:40:03.371Z,93188.06
2022-11-17T13:42:34.439Z,93191.50
2022-11-17T13:45:04.482Z,93187.13
2022-11-17T13:47:47.509Z,93191.28
2022-11-17T13:50:39.954Z,93180.84
2022-11-17T13:53:22.728Z,93182.34
2022-11-17T13:55:50.947Z,93186.16
2022-11-17T13:58:27.633Z,93194.97
2022-11-17T14:00:57.235Z,93201.31
2022-11-17T14:03:37.040Z,93206.00
2022-11-17T14:06:06.847Z,93201.22
2022-11-17T14:08:35.625Z,93205.06
2022-11-17T14:11:09.332Z,93196.97
2022-11-17T14:13:40.705Z,93205.66
2022-11-17T14:16:20.946Z,93194.53
2022-11-17T14:19:00.416Z,93196.78
2022-11-17T14:21:28.758Z,93203.09
2022-11-17T14:24:10.787Z,93195.50
2022-11-17T14:26:42.697Z,93201.03
2022-11-17T14:29:13.105Z,93201.13
2022-11-17T14:31:40.833Z,93197.66
2022-11-17T14:34:08.548Z,93201.28
2022-11-17T14:36:37.434Z,93203.47
2022-11-17T14:39:05.455Z,93209.53
2022-11-17T14:41:33.128Z,93210.72
2022-11-17T14:44:00.780Z,93211.38
2022-11-17T14:46:29.771Z,93204.34
2022-11-17T14:48:57.495Z,93207.16
2022-11-17T14:51:25.632Z,93206.63
2022-11-17T14:53:54.180Z,93205.91
2022-11-17T14:56:23.620Z,93199.13
2022-11-17T14:58:55.037Z,93203.56
2022-11-17T15:01:25.378Z,93188.38
2022-11-17T15:03:55.315Z,93181.88
2022-11-17T15:06:23.588Z,93183.56
2022-11-17T15:08:54.926Z,93186.88
2022-11-17T15:11:22.646Z,93179.94
2022-11-17T15:13:50.345Z,93181.19
2022-11-17T15:16:18.194Z,93170.44
2022-11-17T15:18:47.524Z,93172.16
2022-11-17T15:21:17.200Z,93178.69
2022-11-17T15:23:45.356Z,93179.00
2022-11-17T15:26:14.613Z,93170.66
2022-11-17T15:28:42.590Z,93167.13
2022-11-17T15:31:12.279Z,93171.78
2022-11-17T15:33:41.421Z,93173.94
2022-11-17T15:36:10.370Z,93173.50
2022-11-17T15:38:40.686Z,93181.66
2022-11-17T15:41:09.580Z,93178.13
2022-11-17T15:43:38.447Z,93177.91
2022-11-17T15:46:07.843Z,93165.38
2022-11-17T15:48:38.880Z,93185.03
2022-11-17T15:51:07.808Z,93173.94
2022-11-17T15:53:38.419Z,93184.56
2022-11-17T15:56:09.233Z,93178.06
2022-11-17T15:58:37.171Z,93173.50
2022-11-17T16:01:09.405Z,93175.94
2022-11-17T16:03:36.933Z,93181.97
2022-11-17T16:06:04.938Z,93180.38
2022-11-17T16:08:32.930Z,93178.78
2022-11-17T16:11:00.689Z,93182.63
2022-11-17T16:13:29.766Z,93185.66
2022-11-17T16:15:57.997Z,93187.06
2022-11-17T16:18:25.814Z,93185.72
2022-11-17T16:20:53.503Z,93174.13
2022-11-17T16:23:21.220Z,93174.97
2022-11-17T16:25:49.510Z,93173.94
2022-11-17T16:28:18.351Z,93170.16
2022-11-17T16:30:47.426Z,93166.34
2022-11-17T16:33:16.562Z,93162.03
2022-11-17T16:35:45.400Z,93163.09
2022-11-17T16:38:15.116Z,93150.84
2022-11-17T16:40:42.941Z,93154.41
2022-11-17T16:43:11.758Z,93160.72
2022-11-17T16:45:43.406Z,93168.03
2022-11-17T16:48:12.956Z,93160.44
2022-11-17T16:50:41.564Z,93169.69
2022-11-17T16:53:09.380Z,93160.75
2022-11-17T16:55:37.395Z,93150.69
2022-11-17T16:58:05.662Z,93153.44
2022-11-17T17:00:34.716Z,93144.25
2022-11-17T17:03:02.514Z,93149.72
2022-11-17T17:05:31.643Z,93154.31
2022-11-17T17:07:59.301Z,93150.25
2022-11-17T17:10:27.055Z,93152.44
2022-11-17T17:12:54.694Z,93155.44
2022-11-17T17:15:22.402Z,93154.06
2022-11-17T17:17:50.058Z,93150.00
2022-11-17T17:20:18.137Z,93148.41
2022-11-17T17:22:47.214Z,93154.94
2022-11-17T17:25:15.301Z,93155.50
2022-11-17T17:27:43.080Z,93154.94
2022-11-17T17:30:11.839Z,93168.22
2022-11-17T17:32:39.505Z,93152.19
2022-11-17T17:35:08.060Z,93154.34
2022-11-17T17:37:35.789Z,93137.78
2022-11-17T17:40:05.395Z,93146.69
2022-11-17T17:42:33.107Z,93142.91
2022-11-17T17:45:00.780Z,93144.50
2022-11-17T17:47:28.418Z,93136.94
2022-11-17T17:49:56.203Z,93139.13
2022-11-17T17:52:23.942Z,93137.00
2022-11-17T17:54:51.654Z,93140.88
2022-11-17T17:57:20.693Z,93139.81
2022-11-17T17:59:48.332Z,93135.22
2022-11-17T18:02:16.098Z,93138.78
2022-11-17T18:04:43.731Z,93134.44
2022-11-17T18:07:11.414Z,93146.94
2022-11-17T18:09:39.131Z,93147.25
2022-11-17T18:12:07.012Z,93144.53
2022-11-17T18:14:36.082Z,93147.25
2022-11-17T18:17:03.714Z,93153.50
2022-11-17T18:19:33.187Z,93142.69
2022-11-17T18:22:01.180Z,93147.00
2022-11-17T18:24:29.404Z,93148.09
2022-11-17T18:26:57.199Z,93153.56
2022-11-17T18:29:24.863Z,93151.66
2022-11-17T18:31:54.649Z,93164.41
2022-11-17T18:34:23.566Z,93159.84
2022-11-17T18:36:52.236Z,93162.00
2022-11-17T18:39:21.262Z,93161.75
2022-11-17T18:41:48.995Z,93163.94
2022-11-17T18:44:18.472Z,93169.63
2022-11-17T18:46:46.680Z,93159.88
2022-11-17T18:49:16.195Z,93163.69
2022-11-17T18:51:44.140Z,93156.66
2022-11-17T18:54:12.172Z,93153.66
2022-11-17T18:56:39.965Z,93153.66
2022-11-17T18:59:11.470Z,93152.56
2022-11-17T19:01:43.636Z,93154.75
2022-11-17T19:04:13.395Z,93155.31
2022-11-17T19:06:42.591Z,93156.41
2022-11-17T19:09:10.808Z,93152.59
2022-11-17T19:11:38.512Z,93146.66
2022-11-17T19:14:06.633Z,93155.31
2022-11-17T19:16:42.638Z,93158.59
2022-11-17T19:19:13.136Z,93155.28
2022-11-17T19:21:43.131Z,93162.63
2022-11-17T19:24:10.833Z,93161.81
2022-11-17T19:26:38.556Z,93149.88
2022-11-17T19:29:14.297Z,93143.41
2022-11-17T19:31:44.227Z,93157.22
2022-11-17T19:34:12.168Z,93166.16
2022-11-17T19:36:39.982Z,93165.88
2022-11-17T19:39:09.035Z,93165.59
2022-11-17T19:41:38.293Z,93165.59
2022-11-17T19:44:07.938Z,93165.06
2022-11-17T19:46:36.118Z,93169.13
2022-11-17T19:49:04.640Z,93167.78
2022-11-17T19:51:33.250Z,93162.34
2022-11-17T19:54:04.084Z,93162.06
2022-11-17T19:56:33.165Z,93168.31
2022-11-17T19:59:01.103Z,93177.81
2022-11-17T20:01:30.069Z,93176.44
2022-11-17T20:03:58.995Z,93183.50
2022-11-17T20:06:28.198Z,93179.16
2022-11-17T20:08:56.070Z,93182.38
2022-11-17T20:11:24.763Z,93183.75
2022-11-17T20:13:54.208Z,93177.81
2022-11-17T20:16:24.457Z,93182.66
2022-11-17T20:18:53.677Z,93180.22
2022-11-17T20:21:21.664Z,93174.28
2022-11-17T20:23:49.425Z,93169.41
2022-11-17T20:26:18.911Z,93168.88
2022-11-17T20:28:47.740Z,93161.84
2022-11-17T20:31:19.259Z,93171.59
2022-11-17T20:33:47.554Z,93165.09
2022-11-17T20:36:17.621Z,93168.34
2022-11-17T20:38:45.348Z,93168.91
2022-11-17T20:41:12.962Z,93167.81
2022-11-17T20:43:40.703Z,93168.34
2022-11-17T20:46:08.444Z,93174.84
2022-11-17T20:48:37.604Z,93177.81
2022-11-17T20:51:07.289Z,93186.22
2022-11-17T20:53:35.423Z,93182.44
2022-11-17T20:56:05.953Z,93183.50
2022-11-17T20:58:33.774Z,93188.66
2022-11-17T21:01:07.700Z,93193.78
2022-11-17T21:03:37.027Z,93200.31
2022-11-17T21:06:05.902Z,93194.63
2022-11-17T21:08:35.589Z,93194.88
2022-11-17T21:11:04.888Z,93209.22
2022-11-17T21:13:33.399Z,93190.53
2022-11-17T21:16:09.310Z,93190.53
2022-11-17T21:18:39.756Z,93192.19
2022-11-17T21:21:09.532Z,93197.06
2022-11-17T21:23:37.266Z,93204.34
2022-11-17T21:26:06.133Z,93213.84
2022-11-17T21:28:33.915Z,93213.81
2022-11-17T21:31:07.507Z,93206.81
2022-11-17T21:33:35.329Z,93211.16
2022-11-17T21:36:05.905Z,93225.22
2022-11-17T21:38:33.589Z,93218.44
2022-11-17T21:41:04.944Z,93224.13
2022-11-17T21:43:32.838Z,93242.53
2022-11-17T21:46:03.849Z,93243.59
2022-11-17T21:48:31.569Z,93247.94
2022-11-17T21:50:59.655Z,93254.97
2022-11-17T21:53:29.804Z,93255.00
2022-11-17T21:56:01.204Z,93263.41
2022-11-17T21:58:28.967Z,93269.34
2022-11-17T22:00:56.827Z,93272.88
2022-11-17T22:03:24.918Z,93283.47
2022-11-17T22:05:56.769Z,93301.06
2022-11-17T22:08:29.384Z,93307.03
2022-11-17T22:10:57.251Z,93309.19
2022-11-17T22:13:24.899Z,93317.84
2022-11-17T22:15:52.551Z,93302.69
2022-11-17T22:18:20.238Z,93314.06
2022-11-17T22:20:51.670Z,93327.63
2022-11-17T22:23:19.589Z,93330.31
2022-11-17T22:25:55.661Z,93332.50
2022-11-17T22:28:24.283Z,93330.88
2022-11-17T22:30:52.696Z,93340.63
2022-11-17T22:33:20.580Z,93338.72
2022-11-17T22:35:48.748Z,93324.63
2022-11-17T22:38:17.752Z,93329.22
2022-11-17T22:40:45.796Z,93334.13
2022-11-17T22:43:15.664Z,93333.06
2022-11-17T22:45:43.567Z,93325.19
2022-11-17T22:48:11.435Z,93323.28
2022-11-17T22:50:39.976Z,93320.59
2022-11-17T22:53:07.877Z,93313.00
2022-11-17T22:55:35.640Z,93304.06
2022-11-17T22:58:03.283Z,93301.06
2022-11-17T23:00:32.451Z,93295.38
2022-11-17T23:03:00.327Z,93299.97
2022-11-17T23:05:28.146Z,93296.75
2022-11-17T23:07:55.813Z,93289.94
2022-11-17T23:10:23.469Z,93292.94
2022-11-17T23:12:51.548Z,93288.06
2022-11-17T23:15:19.637Z,93286.72
2022-11-17T23:17:49.780Z,93284.53
2022-11-17T23:20:17.556Z,93283.44
2022-11-17T23:22:45.225Z,93281.56
2022-11-17T23:25:12.879Z,93269.63
2022-11-17T23:27:40.585Z,93267.44
2022-11-17T23:30:09.052Z,93264.75
2022-11-17T23:32:36.781Z,93273.41
2022-11-17T23:35:06.489Z,93260.16
2022-11-17T23:37:34.093Z,93271.00
2022-11-17T23:40:02.086Z,93258.78
2022-11-17T23:42:32.477Z,93255.00
2022-11-17T23:45:00.700Z,93242.81
2022-11-17T23:47:28.327Z,93246.31
2022-11-17T23:49:56.013Z,93250.38
2022-11-17T23:52:25.119Z,93244.44
2022-11-17T23:54:53.183Z,93246.31
2022-11-17T23:57:21.962Z,93244.72
2022-11-17T23:59:50.069Z,93240.34
